sensor_id;sensor_type;location;lat;lon;timestamp;temperature;humidity
51739;DHT22;37815;52.692;6.226;2024-01-27T00:00:19;8.60;99.90
51739;DHT22;37815;52.692;6.226;2024-01-27T00:05:20;8.60;99.90
51739;DHT22;37815;52.692;6.226;2024-01-27T00:10:20;8.50;99.90
51739;DHT22;37815;52.692;6.226;2024-01-27T00:15:21;8.50;99.90
51739;DHT22;37815;52.692;6.226;2024-01-27T00:20:21;8.50;99.90
51739;DHT22;37815;52.692;6.226;2024-01-27T00:25:22;8.50;99.90
51739;DHT22;37815;52.692;6.226;2024-01-27T00:30:23;8.50;99.90
51739;DHT22;37815;52.692;6.226;2024-01-27T00:35:23;8.50;99.90
51739;DHT22;37815;52.692;6.226;2024-01-27T00:40:24;8.40;99.90
51739;DHT22;37815;52.692;6.226;2024-01-27T00:45:24;8.40;99.90
51739;DHT22;37815;52.692;6.226;2024-01-27T00:50:27;8.40;99.90
51739;DHT22;37815;52.692;6.226;2024-01-27T00:55:28;8.40;99.90
51739;DHT22;37815;52.692;6.226;2024-01-27T01:00:28;8.40;99.90
51739;DHT22;37815;52.692;6.226;2024-01-27T01:05:29;8.30;99.90
51739;DHT22;37815;52.692;6.226;2024-01-27T01:10:30;8.30;99.90
51739;DHT22;37815;52.692;6.226;2024-01-27T01:15:31;8.30;99.90
51739;DHT22;37815;52.692;6.226;2024-01-27T01:20:32;8.40;99.90
51739;DHT22;37815;52.692;6.226;2024-01-27T01:25:33;8.30;99.90
51739;DHT22;37815;52.692;6.226;2024-01-27T01:30:33;8.30;99.90
51739;DHT22;37815;52.692;6.226;2024-01-27T01:35:34;8.30;99.90
51739;DHT22;37815;52.692;6.226;2024-01-27T01:40:34;8.30;99.90
51739;DHT22;37815;52.692;6.226;2024-01-27T01:45:35;8.30;99.90
51739;DHT22;37815;52.692;6.226;2024-01-27T01:50:35;8.20;99.90
51739;DHT22;37815;52.692;6.226;2024-01-27T01:55:36;8.20;99.90
51739;DHT22;37815;52.692;6.226;2024-01-27T02:00:37;8.20;99.90
51739;DHT22;37815;52.692;6.226;2024-01-27T02:05:38;8.20;99.90
51739;DHT22;37815;52.692;6.226;2024-01-27T02:10:38;8.20;99.90
51739;DHT22;37815;52.692;6.226;2024-01-27T02:15:39;8.10;99.90
51739;DHT22;37815;52.692;6.226;2024-01-27T02:20:40;8.20;99.90
51739;DHT22;37815;52.692;6.226;2024-01-27T02:25:40;8.20;99.90
51739;DHT22;37815;52.692;6.226;2024-01-27T02:30:41;8.10;99.90
51739;DHT22;37815;52.692;6.226;2024-01-27T02:35:42;8.10;99.90
51739;DHT22;37815;52.692;6.226;2024-01-27T02:40:44;8.10;99.90
51739;DHT22;37815;52.692;6.226;2024-01-27T02:45:44;8.10;99.90
51739;DHT22;37815;52.692;6.226;2024-01-27T02:50:45;8.10;99.90
51739;DHT22;37815;52.692;6.226;2024-01-27T02:55:45;8.10;99.90
51739;DHT22;37815;52.692;6.226;2024-01-27T03:00:46;8.10;99.90
51739;DHT22;37815;52.692;6.226;2024-01-27T03:05:46;8.00;99.90
51739;DHT22;37815;52.692;6.226;2024-01-27T03:10:47;8.00;99.90
51739;DHT22;37815;52.692;6.226;2024-01-27T03:15:48;8.00;99.90
51739;DHT22;37815;52.692;6.226;2024-01-27T03:20:49;8.00;99.90
51739;DHT22;37815;52.692;6.226;2024-01-27T03:25:50;8.00;99.90
51739;DHT22;37815;52.692;6.226;2024-01-27T03:30:50;8.00;99.90
51739;DHT22;37815;52.692;6.226;2024-01-27T03:35:51;8.00;99.90
51739;DHT22;37815;52.692;6.226;2024-01-27T03:40:51;7.90;99.90
51739;DHT22;37815;52.692;6.226;2024-01-27T03:45:52;7.90;99.90
51739;DHT22;37815;52.692;6.226;2024-01-27T03:50:53;7.90;99.90
51739;DHT22;37815;52.692;6.226;2024-01-27T03:55:53;7.90;99.90
51739;DHT22;37815;52.692;6.226;2024-01-27T04:00:54;7.90;99.90
51739;DHT22;37815;52.692;6.226;2024-01-27T04:05:55;7.90;99.90
51739;DHT22;37815;52.692;6.226;2024-01-27T04:10:55;7.90;99.90
51739;DHT22;37815;52.692;6.226;2024-01-27T04:15:56;8.00;99.90
51739;DHT22;37815;52.692;6.226;2024-01-27T04:20:59;8.10;99.90
51739;DHT22;37815;52.692;6.226;2024-01-27T04:26:01;7.80;99.90
51739;DHT22;37815;52.692;6.226;2024-01-27T04:31:03;7.80;99.90
51739;DHT22;37815;52.692;6.226;2024-01-27T04:36:03;7.80;99.90
51739;DHT22;37815;52.692;6.226;2024-01-27T04:41:07;7.80;99.90
51739;DHT22;37815;52.692;6.226;2024-01-27T04:46:07;7.80;99.90
51739;DHT22;37815;52.692;6.226;2024-01-27T04:51:08;7.80;99.90
51739;DHT22;37815;52.692;6.226;2024-01-27T04:56:08;7.80;99.90
51739;DHT22;37815;52.692;6.226;2024-01-27T05:01:10;7.70;99.90
51739;DHT22;37815;52.692;6.226;2024-01-27T05:06:10;7.70;99.90
51739;DHT22;37815;52.692;6.226;2024-01-27T05:11:11;7.70;99.90
51739;DHT22;37815;52.692;6.226;2024-01-27T05:16:11;7.70;99.90
51739;DHT22;37815;52.692;6.226;2024-01-27T05:21:12;7.70;99.90
51739;DHT22;37815;52.692;6.226;2024-01-27T05:26:13;7.70;99.90
51739;DHT22;37815;52.692;6.226;2024-01-27T05:31:13;7.70;99.90
51739;DHT22;37815;52.692;6.226;2024-01-27T05:36:14;8.10;99.90
51739;DHT22;37815;52.692;6.226;2024-01-27T05:41:14;7.60;99.90
51739;DHT22;37815;52.692;6.226;2024-01-27T05:46:15;7.60;99.90
51739;DHT22;37815;52.692;6.226;2024-01-27T05:51:15;7.60;99.90
51739;DHT22;37815;52.692;6.226;2024-01-27T05:56:16;7.60;99.90
51739;DHT22;37815;52.692;6.226;2024-01-27T06:01:20;7.60;99.90
51739;DHT22;37815;52.692;6.226;2024-01-27T06:06:21;7.60;99.90
51739;DHT22;37815;52.692;6.226;2024-01-27T06:11:25;7.60;99.90
51739;DHT22;37815;52.692;6.226;2024-01-27T06:16:26;7.50;99.90
51739;DHT22;37815;52.692;6.226;2024-01-27T06:21:27;7.50;99.90
51739;DHT22;37815;52.692;6.226;2024-01-27T06:26:27;7.50;99.90
51739;DHT22;37815;52.692;6.226;2024-01-27T06:31:28;7.50;99.90
51739;DHT22;37815;52.692;6.226;2024-01-27T06:36:28;7.50;99.90
51739;DHT22;37815;52.692;6.226;2024-01-27T06:41:29;7.50;99.90
51739;DHT22;37815;52.692;6.226;2024-01-27T06:46:31;7.50;99.90
51739;DHT22;37815;52.692;6.226;2024-01-27T06:51:31;7.50;99.90
51739;DHT22;37815;52.692;6.226;2024-01-27T06:56:32;7.50;99.90
51739;DHT22;37815;52.692;6.226;2024-01-27T07:01:32;7.40;99.90
51739;DHT22;37815;52.692;6.226;2024-01-27T07:06:33;7.40;99.90
51739;DHT22;37815;52.692;6.226;2024-01-27T07:11:33;7.40;99.90
51739;DHT22;37815;52.692;6.226;2024-01-27T07:16:34;7.40;99.90
51739;DHT22;37815;52.692;6.226;2024-01-27T07:21:35;7.40;99.90
51739;DHT22;37815;52.692;6.226;2024-01-27T07:26:36;7.40;99.90
51739;DHT22;37815;52.692;6.226;2024-01-27T07:31:36;7.40;99.90
51739;DHT22;37815;52.692;6.226;2024-01-27T07:36:37;7.40;99.90
51739;DHT22;37815;52.692;6.226;2024-01-27T07:41:37;7.40;99.90
51739;DHT22;37815;52.692;6.226;2024-01-27T07:46:39;7.40;99.90
51739;DHT22;37815;52.692;6.226;2024-01-27T07:51:39;7.40;99.90
51739;DHT22;37815;52.692;6.226;2024-01-27T07:56:40;7.40;99.90
51739;DHT22;37815;52.692;6.226;2024-01-27T08:01:41;7.40;99.90
51739;DHT22;37815;52.692;6.226;2024-01-27T08:06:49;7.30;99.90
51739;DHT22;37815;52.692;6.226;2024-01-27T08:11:50;7.30;99.90
51739;DHT22;37815;52.692;6.226;2024-01-27T08:16:52;7.30;99.90
51739;DHT22;37815;52.692;6.226;2024-01-27T08:21:53;7.30;99.90
51739;DHT22;37815;52.692;6.226;2024-01-27T08:26:53;7.30;99.90
51739;DHT22;37815;52.692;6.226;2024-01-27T08:31:54;7.30;99.90
51739;DHT22;37815;52.692;6.226;2024-01-27T08:37:01;7.30;99.90
51739;DHT22;37815;52.692;6.226;2024-01-27T08:42:02;7.30;99.90
51739;DHT22;37815;52.692;6.226;2024-01-27T08:47:03;7.30;99.90
51739;DHT22;37815;52.692;6.226;2024-01-27T08:52:04;7.40;99.90
51739;DHT22;37815;52.692;6.226;2024-01-27T08:57:04;7.40;99.90
51739;DHT22;37815;52.692;6.226;2024-01-27T09:02:05;7.40;99.90
51739;DHT22;37815;52.692;6.226;2024-01-27T09:07:06;7.40;99.90
51739;DHT22;37815;52.692;6.226;2024-01-27T09:12:06;7.40;99.90
51739;DHT22;37815;52.692;6.226;2024-01-27T09:17:07;7.40;99.90
51739;DHT22;37815;52.692;6.226;2024-01-27T09:22:08;7.50;99.90
51739;DHT22;37815;52.692;6.226;2024-01-27T09:27:08;7.50;99.90
51739;DHT22;37815;52.692;6.226;2024-01-27T09:32:09;7.50;99.90
51739;DHT22;37815;52.692;6.226;2024-01-27T09:37:09;7.50;99.90
51739;DHT22;37815;52.692;6.226;2024-01-27T09:42:13;7.60;99.90
51739;DHT22;37815;52.692;6.226;2024-01-27T09:47:14;7.60;99.90
51739;DHT22;37815;52.692;6.226;2024-01-27T09:52:15;7.70;99.90
51739;DHT22;37815;52.692;6.226;2024-01-27T09:57:16;7.70;99.90
51739;DHT22;37815;52.692;6.226;2024-01-27T10:02:19;7.70;99.90
51739;DHT22;37815;52.692;6.226;2024-01-27T10:07:21;7.80;99.90
51739;DHT22;37815;52.692;6.226;2024-01-27T10:12:24;7.80;99.90
51739;DHT22;37815;52.692;6.226;2024-01-27T10:17:26;8.00;99.90
51739;DHT22;37815;52.692;6.226;2024-01-27T10:22:42;8.00;99.90
51739;DHT22;37815;52.692;6.226;2024-01-27T10:27:43;8.10;99.90
51739;DHT22;37815;52.692;6.226;2024-01-27T10:32:55;8.30;99.90
51739;DHT22;37815;52.692;6.226;2024-01-27T10:37:57;8.70;99.90
51739;DHT22;37815;52.692;6.226;2024-01-27T10:48:03;8.60;99.90
51739;DHT22;37815;52.692;6.226;2024-01-27T10:53:09;8.70;99.90
51739;DHT22;37815;52.692;6.226;2024-01-27T10:58:10;8.70;99.90
51739;DHT22;37815;52.692;6.226;2024-01-27T11:03:12;8.80;99.90
51739;DHT22;37815;52.692;6.226;2024-01-27T11:08:14;8.90;99.90
51739;DHT22;37815;52.692;6.226;2024-01-27T11:13:16;8.90;99.90
51739;DHT22;37815;52.692;6.226;2024-01-27T11:18:17;9.00;99.90
51739;DHT22;37815;52.692;6.226;2024-01-27T11:23:18;9.00;99.90
51739;DHT22;37815;52.692;6.226;2024-01-27T11:28:25;9.20;99.90
51739;DHT22;37815;52.692;6.226;2024-01-27T11:33:26;9.10;99.90
51739;DHT22;37815;52.692;6.226;2024-01-27T11:38:27;9.20;99.90
51739;DHT22;37815;52.692;6.226;2024-01-27T11:43:27;9.20;99.90
51739;DHT22;37815;52.692;6.226;2024-01-27T11:48:28;9.30;99.90
51739;DHT22;37815;52.692;6.226;2024-01-27T11:53:30;9.30;99.90
51739;DHT22;37815;52.692;6.226;2024-01-27T11:58:33;9.30;99.90
51739;DHT22;37815;52.692;6.226;2024-01-27T12:03:34;9.30;99.90
51739;DHT22;37815;52.692;6.226;2024-01-27T12:08:35;9.40;99.90
51739;DHT22;37815;52.692;6.226;2024-01-27T12:13:36;9.40;99.90
51739;DHT22;37815;52.692;6.226;2024-01-27T12:18:37;9.40;99.90
51739;DHT22;37815;52.692;6.226;2024-01-27T12:23:52;9.40;99.90
51739;DHT22;37815;52.692;6.226;2024-01-27T12:28:54;9.40;99.90
51739;DHT22;37815;52.692;6.226;2024-01-27T12:33:56;9.30;99.90
51739;DHT22;37815;52.692;6.226;2024-01-27T12:39:02;9.30;99.90
51739;DHT22;37815;52.692;6.226;2024-01-27T12:44:06;9.30;99.90
51739;DHT22;37815;52.692;6.226;2024-01-27T12:49:08;9.40;99.90
51739;DHT22;37815;52.692;6.226;2024-01-27T12:54:08;9.30;99.90
51739;DHT22;37815;52.692;6.226;2024-01-27T12:59:09;9.30;99.90
51739;DHT22;37815;52.692;6.226;2024-01-27T13:04:09;9.30;99.90
51739;DHT22;37815;52.692;6.226;2024-01-27T13:09:10;9.50;99.90
51739;DHT22;37815;52.692;6.226;2024-01-27T13:14:14;9.30;99.90
51739;DHT22;37815;52.692;6.226;2024-01-27T13:19:16;9.30;99.90
51739;DHT22;37815;52.692;6.226;2024-01-27T13:24:17;9.30;99.90
51739;DHT22;37815;52.692;6.226;2024-01-27T13:29:17;9.30;99.90
51739;DHT22;37815;52.692;6.226;2024-01-27T13:34:18;9.30;99.90
51739;DHT22;37815;52.692;6.226;2024-01-27T13:39:18;9.20;99.90
51739;DHT22;37815;52.692;6.226;2024-01-27T13:44:19;9.20;99.90
51739;DHT22;37815;52.692;6.226;2024-01-27T13:49:20;9.20;99.90
51739;DHT22;37815;52.692;6.226;2024-01-27T13:54:20;9.10;99.90
51739;DHT22;37815;52.692;6.226;2024-01-27T13:59:21;9.10;99.90
51739;DHT22;37815;52.692;6.226;2024-01-27T14:04:22;9.10;99.90
51739;DHT22;37815;52.692;6.226;2024-01-27T14:09:23;9.10;99.90
51739;DHT22;37815;52.692;6.226;2024-01-27T14:14:24;9.10;99.90
51739;DHT22;37815;52.692;6.226;2024-01-27T14:19:24;9.10;99.90
51739;DHT22;37815;52.692;6.226;2024-01-27T14:24:25;9.10;99.90
51739;DHT22;37815;52.692;6.226;2024-01-27T14:29:26;9.10;99.90
51739;DHT22;37815;52.692;6.226;2024-01-27T14:34:27;9.00;99.90
51739;DHT22;37815;52.692;6.226;2024-01-27T14:39:27;9.00;99.90
51739;DHT22;37815;52.692;6.226;2024-01-27T14:44:28;9.00;99.90
51739;DHT22;37815;52.692;6.226;2024-01-27T14:49:30;9.00;99.90
51739;DHT22;37815;52.692;6.226;2024-01-27T14:54:30;9.00;99.90
51739;DHT22;37815;52.692;6.226;2024-01-27T14:59:31;9.00;99.90
51739;DHT22;37815;52.692;6.226;2024-01-27T15:04:32;9.00;99.90
51739;DHT22;37815;52.692;6.226;2024-01-27T15:09:33;9.00;99.90
51739;DHT22;37815;52.692;6.226;2024-01-27T15:14:33;9.00;99.90
51739;DHT22;37815;52.692;6.226;2024-01-27T15:19:34;8.00;99.90
51739;DHT22;37815;52.692;6.226;2024-01-27T15:24:34;8.90;99.90
51739;DHT22;37815;52.692;6.226;2024-01-27T15:29:37;8.90;99.90
51739;DHT22;37815;52.692;6.226;2024-01-27T15:34:37;8.90;99.90
51739;DHT22;37815;52.692;6.226;2024-01-27T15:39:38;8.90;99.90
51739;DHT22;37815;52.692;6.226;2024-01-27T15:44:39;8.90;99.90
51739;DHT22;37815;52.692;6.226;2024-01-27T15:49:39;8.80;99.90
51739;DHT22;37815;52.692;6.226;2024-01-27T15:54:41;8.80;99.90
51739;DHT22;37815;52.692;6.226;2024-01-27T15:59:45;8.80;99.90
51739;DHT22;37815;52.692;6.226;2024-01-27T16:04:45;8.80;99.90
51739;DHT22;37815;52.692;6.226;2024-01-27T16:09:46;8.80;99.90
51739;DHT22;37815;52.692;6.226;2024-01-27T16:14:47;8.80;99.90
51739;DHT22;37815;52.692;6.226;2024-01-27T16:19:48;8.80;99.90
51739;DHT22;37815;52.692;6.226;2024-01-27T16:24:51;10.10;99.90
51739;DHT22;37815;52.692;6.226;2024-01-27T16:29:53;8.80;99.90
51739;DHT22;37815;52.692;6.226;2024-01-27T16:34:54;8.80;99.90
51739;DHT22;37815;52.692;6.226;2024-01-27T16:39:54;8.80;99.90
51739;DHT22;37815;52.692;6.226;2024-01-27T16:44:55;8.80;99.90
51739;DHT22;37815;52.692;6.226;2024-01-27T16:49:55;8.70;99.90
51739;DHT22;37815;52.692;6.226;2024-01-27T16:54:56;8.70;99.90
51739;DHT22;37815;52.692;6.226;2024-01-27T16:59:57;8.70;99.90
51739;DHT22;37815;52.692;6.226;2024-01-27T17:04:58;8.60;99.90
51739;DHT22;37815;52.692;6.226;2024-01-27T17:10:03;8.50;99.90
51739;DHT22;37815;52.692;6.226;2024-01-27T17:15:05;8.50;99.90
51739;DHT22;37815;52.692;6.226;2024-01-27T17:20:06;8.50;99.90
51739;DHT22;37815;52.692;6.226;2024-01-27T17:25:08;8.50;99.90
51739;DHT22;37815;52.692;6.226;2024-01-27T17:30:09;8.50;99.90
51739;DHT22;37815;52.692;6.226;2024-01-27T17:35:10;8.50;99.90
51739;DHT22;37815;52.692;6.226;2024-01-27T17:40:11;8.50;99.90
51739;DHT22;37815;52.692;6.226;2024-01-27T17:45:12;8.50;99.90
51739;DHT22;37815;52.692;6.226;2024-01-27T17:50:12;8.50;99.90
51739;DHT22;37815;52.692;6.226;2024-01-27T17:55:13;8.60;99.90
51739;DHT22;37815;52.692;6.226;2024-01-27T18:00:15;8.60;99.90
51739;DHT22;37815;52.692;6.226;2024-01-27T18:05:17;8.60;99.90
51739;DHT22;37815;52.692;6.226;2024-01-27T18:10:17;8.60;99.90
51739;DHT22;37815;52.692;6.226;2024-01-27T18:15:18;8.50;99.90
51739;DHT22;37815;52.692;6.226;2024-01-27T18:20:18;8.50;99.90
51739;DHT22;37815;52.692;6.226;2024-01-27T18:25:19;8.40;99.90
51739;DHT22;37815;52.692;6.226;2024-01-27T18:30:21;8.40;99.90
51739;DHT22;37815;52.692;6.226;2024-01-27T18:35:22;8.40;99.90
51739;DHT22;37815;52.692;6.226;2024-01-27T18:40:23;8.40;99.90
51739;DHT22;37815;52.692;6.226;2024-01-27T18:45:24;8.30;99.90
51739;DHT22;37815;52.692;6.226;2024-01-27T18:50:25;8.30;99.90
51739;DHT22;37815;52.692;6.226;2024-01-27T18:55:26;8.30;99.90
51739;DHT22;37815;52.692;6.226;2024-01-27T19:00:30;8.20;99.90
51739;DHT22;37815;52.692;6.226;2024-01-27T19:05:33;8.30;99.90
51739;DHT22;37815;52.692;6.226;2024-01-27T19:10:34;8.20;99.90
51739;DHT22;37815;52.692;6.226;2024-01-27T19:15:34;8.20;99.90
51739;DHT22;37815;52.692;6.226;2024-01-27T19:20:36;8.20;99.90
51739;DHT22;37815;52.692;6.226;2024-01-27T19:25:37;8.20;99.90
51739;DHT22;37815;52.692;6.226;2024-01-27T19:30:38;8.20;99.90
51739;DHT22;37815;52.692;6.226;2024-01-27T19:35:39;8.10;99.90
51739;DHT22;37815;52.692;6.226;2024-01-27T19:40:40;8.10;99.90
51739;DHT22;37815;52.692;6.226;2024-01-27T19:45:40;8.10;99.90
51739;DHT22;37815;52.692;6.226;2024-01-27T19:50:41;8.10;99.90
51739;DHT22;37815;52.692;6.226;2024-01-27T19:55:42;8.10;99.90
51739;DHT22;37815;52.692;6.226;2024-01-27T20:00:42;8.00;99.90
51739;DHT22;37815;52.692;6.226;2024-01-27T20:05:43;8.00;99.90
51739;DHT22;37815;52.692;6.226;2024-01-27T20:10:43;8.00;99.90
51739;DHT22;37815;52.692;6.226;2024-01-27T20:15:44;8.00;99.90
51739;DHT22;37815;52.692;6.226;2024-01-27T20:20:44;8.00;99.90
51739;DHT22;37815;52.692;6.226;2024-01-27T20:25:45;8.00;99.90
51739;DHT22;37815;52.692;6.226;2024-01-27T20:30:46;8.00;99.90
51739;DHT22;37815;52.692;6.226;2024-01-27T20:35:47;7.90;99.90
51739;DHT22;37815;52.692;6.226;2024-01-27T20:40:48;7.90;99.90
51739;DHT22;37815;52.692;6.226;2024-01-27T20:45:48;7.90;99.90
51739;DHT22;37815;52.692;6.226;2024-01-27T20:50:49;7.90;99.90
51739;DHT22;37815;52.692;6.226;2024-01-27T20:55:50;7.90;99.90
51739;DHT22;37815;52.692;6.226;2024-01-27T21:00:51;7.90;99.90
51739;DHT22;37815;52.692;6.226;2024-01-27T21:05:52;7.90;99.90
51739;DHT22;37815;52.692;6.226;2024-01-27T21:10:52;7.80;99.90
51739;DHT22;37815;52.692;6.226;2024-01-27T21:15:53;7.80;99.90
51739;DHT22;37815;52.692;6.226;2024-01-27T21:20:54;7.80;99.90
51739;DHT22;37815;52.692;6.226;2024-01-27T21:25:55;7.80;99.90
51739;DHT22;37815;52.692;6.226;2024-01-27T21:30:56;7.80;99.90
51739;DHT22;37815;52.692;6.226;2024-01-27T21:35:57;7.80;99.90
51739;DHT22;37815;52.692;6.226;2024-01-27T21:40:57;7.80;99.90
51739;DHT22;37815;52.692;6.226;2024-01-27T21:45:58;7.80;99.90
51739;DHT22;37815;52.692;6.226;2024-01-27T21:50:58;7.80;99.90
51739;DHT22;37815;52.692;6.226;2024-01-27T21:55:59;7.70;99.90
51739;DHT22;37815;52.692;6.226;2024-01-27T22:01:00;7.70;99.90
51739;DHT22;37815;52.692;6.226;2024-01-27T22:06:00;7.70;99.90
51739;DHT22;37815;52.692;6.226;2024-01-27T22:11:04;7.70;99.90
51739;DHT22;37815;52.692;6.226;2024-01-27T22:16:06;7.70;99.90
51739;DHT22;37815;52.692;6.226;2024-01-27T22:21:06;7.70;99.90
51739;DHT22;37815;52.692;6.226;2024-01-27T22:26:07;7.70;99.90
51739;DHT22;37815;52.692;6.226;2024-01-27T22:31:09;7.60;99.90
51739;DHT22;37815;52.692;6.226;2024-01-27T22:36:10;7.60;99.90
51739;DHT22;37815;52.692;6.226;2024-01-27T22:41:13;7.60;99.90
51739;DHT22;37815;52.692;6.226;2024-01-27T22:46:14;7.60;99.90
51739;DHT22;37815;52.692;6.226;2024-01-27T22:51:14;7.60;99.90
51739;DHT22;37815;52.692;6.226;2024-01-27T22:56:15;7.60;99.90
51739;DHT22;37815;52.692;6.226;2024-01-27T23:01:15;7.60;99.90
51739;DHT22;37815;52.692;6.226;2024-01-27T23:06:16;7.50;99.90
51739;DHT22;37815;52.692;6.226;2024-01-27T23:11:17;7.50;99.90
51739;DHT22;37815;52.692;6.226;2024-01-27T23:16:17;7.50;99.90
51739;DHT22;37815;52.692;6.226;2024-01-27T23:21:19;7.50;99.90
51739;DHT22;37815;52.692;6.226;2024-01-27T23:26:20;7.50;99.90
51739;DHT22;37815;52.692;6.226;2024-01-27T23:31:20;7.50;99.90
51739;DHT22;37815;52.692;6.226;2024-01-27T23:36:21;7.50;99.90
51739;DHT22;37815;52.692;6.226;2024-01-27T23:41:21;7.40;99.90
51739;DHT22;37815;52.692;6.226;2024-01-27T23:46:22;7.40;99.90
51739;DHT22;37815;52.692;6.226;2024-01-27T23:51:22;7.40;99.90
51739;DHT22;37815;52.692;6.226;2024-01-27T23:56:23;7.40;99.90
